Concrete, Texas
Current Conditions -  °F | °C
As of 5:51 AM on Sunday 21 Dec 2014 (Local Time) from KVCT Reporting Station
Haze Haze  
Wind Chill: 53°   Ceiling: 1600
Heat Index: 53°   Visibility: 6mi
Dew Point: 51°   Wind: 8mph
Humidity: 93%   Direction: 50°NE
Pressure: 30.1"   Gusts: NA
Location:  29.0941°N, 97.191°W
Report Text: KVCT 211151Z AUTO 05007KT 6SM BR FEW007 OVC016 12/11 A3010 RMK AO2 SLP190 T01170106 10122 20117 56010 $
Loading
Personal Weather Stations






























Interactive Weather Map New forecast layout! Learn more

10-Day Weather Forecast

Advertisements
Track Severe Weather on mobile